FAB2462 SBGL-SBBV
Flight info
| Callsign | FAB2462 |
|---|---|
| Flight time | N/A |
| Altitude | 19000 |
| Route | DCT ASKAV Z36 TOKUR N0250F200 CNF Z63 GELVA Z86 MNS G678 N0250F210 |
| Aircraft | C130/M-SDE3/C |
Departure
| Time | N/A |
|---|---|
| Airport | Rio Galeão – Tom Jobim International Airport (SBGL) |
Arrival
| Time | 2026-04-15 21:28 |
|---|---|
| Airport | Atlas Brasil Cantanhede International Airport (SBBV) |
| Time | Latitude | Longitude | Altitude | Speed | Heading |
|---|---|---|---|---|---|
| 2026-04-15 20:39 | -1.38503 | -60.28290 | 21000 ft | 358 kts | 351° |
| 2026-04-15 20:39 | -1.36024 | -60.28527 | 21000 ft | 358 kts | 351° |
| 2026-04-15 20:40 | -1.33551 | -60.28763 | 21000 ft | 358 kts | 351° |
| 2026-04-15 20:40 | -1.31067 | -60.29000 | 21000 ft | 358 kts | 351° |
| 2026-04-15 20:40 | -1.28584 | -60.29237 | 21000 ft | 358 kts | 351° |
| 2026-04-15 20:40 | -1.26099 | -60.29475 | 21000 ft | 358 kts | 351° |
| 2026-04-15 20:41 | -1.23605 | -60.29713 | 21000 ft | 358 kts | 351° |
| 2026-04-15 20:41 | -1.21158 | -60.29946 | 21000 ft | 358 kts | 351° |
| 2026-04-15 20:41 | -1.18681 | -60.30183 | 21000 ft | 358 kts | 351° |
| 2026-04-15 20:41 | -1.16197 | -60.30420 | 21000 ft | 358 kts | 351° |
| 2026-04-15 20:42 | -1.13719 | -60.30656 | 21000 ft | 358 kts | 351° |
| 2026-04-15 20:42 | -1.11240 | -60.30893 | 21000 ft | 358 kts | 351° |
| 2026-04-15 20:42 | -1.08758 | -60.31130 | 21000 ft | 358 kts | 351° |
| 2026-04-15 20:42 | -1.06276 | -60.31367 | 21000 ft | 358 kts | 351° |
| 2026-04-15 20:43 | -1.03803 | -60.31603 | 21000 ft | 358 kts | 351° |
| 2026-04-15 20:43 | -1.01323 | -60.31840 | 21000 ft | 358 kts | 351° |
| 2026-04-15 20:43 | -0.98856 | -60.32075 | 21000 ft | 358 kts | 351° |
| 2026-04-15 20:43 | -0.96361 | -60.32314 | 21000 ft | 358 kts | 351° |
| 2026-04-15 20:44 | -0.93882 | -60.32550 | 21000 ft | 358 kts | 351° |
| 2026-04-15 20:44 | -0.91439 | -60.32783 | 21000 ft | 358 kts | 351° |
| 2026-04-15 20:44 | -0.88959 | -60.33020 | 21000 ft | 358 kts | 351° |
| 2026-04-15 20:44 | -0.86474 | -60.33257 | 21000 ft | 358 kts | 351° |
| 2026-04-15 20:45 | -0.84001 | -60.33493 | 21000 ft | 358 kts | 351° |
| 2026-04-15 20:45 | -0.81519 | -60.33730 | 21000 ft | 358 kts | 351° |
| 2026-04-15 20:45 | -0.79042 | -60.33967 | 21000 ft | 358 kts | 351° |
| 2026-04-15 20:45 | -0.76562 | -60.34203 | 21000 ft | 358 kts | 351° |
| 2026-04-15 20:46 | -0.74090 | -60.34439 | 21000 ft | 358 kts | 351° |
| 2026-04-15 20:46 | -0.71602 | -60.34677 | 21000 ft | 358 kts | 351° |
| 2026-04-15 20:46 | -0.69127 | -60.34913 | 21000 ft | 358 kts | 351° |
| 2026-04-15 20:46 | -0.66645 | -60.35150 | 21000 ft | 358 kts | 351° |
| 2026-04-15 20:47 | -0.64168 | -60.35386 | 21000 ft | 358 kts | 351° |
| 2026-04-15 20:47 | -0.61688 | -60.35623 | 21000 ft | 358 kts | 351° |
| 2026-04-15 20:47 | -0.59211 | -60.35859 | 21000 ft | 358 kts | 351° |
| 2026-04-15 20:47 | -0.56760 | -60.36093 | 21000 ft | 358 kts | 351° |
| 2026-04-15 20:48 | -0.54280 | -60.36330 | 21000 ft | 358 kts | 351° |
| 2026-04-15 20:48 | -0.51795 | -60.36567 | 21000 ft | 358 kts | 351° |
| 2026-04-15 20:48 | -0.49322 | -60.36803 | 21000 ft | 358 kts | 351° |
| 2026-04-15 20:48 | -0.46841 | -60.37040 | 21000 ft | 358 kts | 351° |
| 2026-04-15 20:49 | -0.44354 | -60.37277 | 21000 ft | 358 kts | 351° |
| 2026-04-15 20:49 | -0.41877 | -60.37514 | 21000 ft | 358 kts | 351° |
| 2026-04-15 20:49 | -0.39400 | -60.37750 | 21000 ft | 358 kts | 351° |
| 2026-04-15 20:49 | -0.36917 | -60.37987 | 21000 ft | 358 kts | 351° |
| 2026-04-15 20:50 | -0.34439 | -60.38224 | 21000 ft | 358 kts | 351° |
| 2026-04-15 20:50 | -0.31955 | -60.38461 | 21000 ft | 358 kts | 351° |
| 2026-04-15 20:50 | -0.29482 | -60.38697 | 21000 ft | 358 kts | 351° |
| 2026-04-15 20:50 | -0.27004 | -60.38933 | 21000 ft | 358 kts | 351° |
| 2026-04-15 20:51 | -0.24525 | -60.39170 | 21000 ft | 358 kts | 351° |
| 2026-04-15 20:51 | -0.22070 | -60.39404 | 21000 ft | 358 kts | 351° |
| 2026-04-15 20:51 | -0.19591 | -60.39641 | 21000 ft | 358 kts | 351° |
| 2026-04-15 20:51 | -0.17109 | -60.39877 | 21000 ft | 358 kts | 351° |
| 2026-04-15 20:52 | -0.14630 | -60.40114 | 21000 ft | 358 kts | 351° |
| 2026-04-15 20:52 | -0.12153 | -60.40350 | 21000 ft | 358 kts | 351° |
| 2026-04-15 20:52 | -0.09671 | -60.40587 | 21000 ft | 358 kts | 351° |
| 2026-04-15 20:52 | -0.07193 | -60.40824 | 21000 ft | 358 kts | 351° |
| 2026-04-15 20:53 | -0.04714 | -60.41060 | 21000 ft | 358 kts | 351° |
| 2026-04-15 20:53 | -0.02236 | -60.41297 | 21000 ft | 358 kts | 351° |
| 2026-04-15 20:53 | 0.00245 | -60.41533 | 21000 ft | 358 kts | 351° |
| 2026-04-15 20:53 | 0.02724 | -60.41770 | 21000 ft | 358 kts | 351° |
| 2026-04-15 20:54 | 0.05198 | -60.42006 | 21000 ft | 358 kts | 351° |
| 2026-04-15 20:54 | 0.07676 | -60.42243 | 21000 ft | 358 kts | 351° |
| 2026-04-15 20:54 | 0.10158 | -60.42480 | 21000 ft | 358 kts | 351° |
| 2026-04-15 20:54 | 0.12606 | -60.42713 | 21000 ft | 358 kts | 351° |
| 2026-04-15 20:55 | 0.15089 | -60.42950 | 21000 ft | 358 kts | 351° |
| 2026-04-15 20:55 | 0.17569 | -60.43187 | 21000 ft | 358 kts | 351° |
| 2026-04-15 20:55 | 0.20051 | -60.43424 | 21000 ft | 358 kts | 351° |
| 2026-04-15 20:55 | 0.22538 | -60.43661 | 21000 ft | 358 kts | 351° |
| 2026-04-15 20:56 | 0.25017 | -60.43897 | 21000 ft | 358 kts | 351° |
| 2026-04-15 20:56 | 0.27493 | -60.44134 | 21000 ft | 358 kts | 351° |
| 2026-04-15 20:56 | 0.29977 | -60.44371 | 21000 ft | 358 kts | 351° |
| 2026-04-15 20:56 | 0.32453 | -60.44607 | 21000 ft | 358 kts | 351° |
| 2026-04-15 20:57 | 0.34937 | -60.44844 | 21000 ft | 358 kts | 351° |
| 2026-04-15 20:57 | 0.37413 | -60.45080 | 21000 ft | 358 kts | 351° |
| 2026-04-15 20:57 | 0.39891 | -60.45317 | 21000 ft | 358 kts | 351° |
| 2026-04-15 20:57 | 0.42373 | -60.45554 | 21000 ft | 358 kts | 351° |
| 2026-04-15 20:58 | 0.44856 | -60.45791 | 21000 ft | 358 kts | 351° |
| 2026-04-15 20:58 | 0.47335 | -60.46027 | 21000 ft | 358 kts | 351° |
| 2026-04-15 20:58 | 0.49783 | -60.46261 | 21000 ft | 358 kts | 351° |
| 2026-04-15 20:58 | 0.52298 | -60.46501 | 21000 ft | 358 kts | 351° |
| 2026-04-15 20:59 | 0.54749 | -60.46735 | 21000 ft | 358 kts | 351° |
| 2026-04-15 20:59 | 0.57229 | -60.46972 | 21000 ft | 358 kts | 351° |
| 2026-04-15 20:59 | 0.59709 | -60.47208 | 21000 ft | 358 kts | 351° |
| 2026-04-15 20:59 | 0.62191 | -60.47445 | 21000 ft | 358 kts | 351° |
| 2026-04-15 21:00 | 0.64674 | -60.47682 | 21000 ft | 358 kts | 351° |
| 2026-04-15 21:00 | 0.67120 | -60.47916 | 21000 ft | 358 kts | 351° |
| 2026-04-15 21:00 | 0.69605 | -60.48153 | 21000 ft | 358 kts | 351° |
| 2026-04-15 21:00 | 0.72087 | -60.48390 | 21000 ft | 358 kts | 351° |
| 2026-04-15 21:01 | 0.74571 | -60.48627 | 21000 ft | 358 kts | 351° |
| 2026-04-15 21:01 | 0.77044 | -60.48863 | 21000 ft | 358 kts | 351° |
| 2026-04-15 21:01 | 0.79534 | -60.49100 | 21000 ft | 358 kts | 351° |
| 2026-04-15 21:01 | 0.82015 | -60.49337 | 21000 ft | 358 kts | 351° |
| 2026-04-15 21:02 | 0.84497 | -60.49574 | 21000 ft | 358 kts | 351° |
| 2026-04-15 21:02 | 0.86977 | -60.49811 | 21000 ft | 358 kts | 351° |
| 2026-04-15 21:02 | 0.89460 | -60.50048 | 21000 ft | 358 kts | 351° |
| 2026-04-15 21:02 | 0.91913 | -60.50282 | 21000 ft | 358 kts | 351° |
| 2026-04-15 21:03 | 0.94393 | -60.50519 | 21000 ft | 358 kts | 351° |
| 2026-04-15 21:03 | 0.96871 | -60.50755 | 21000 ft | 358 kts | 351° |
| 2026-04-15 21:03 | 0.99343 | -60.50991 | 21000 ft | 358 kts | 351° |
| 2026-04-15 21:03 | 1.01842 | -60.51230 | 21000 ft | 358 kts | 351° |
| 2026-04-15 21:04 | 1.04313 | -60.51466 | 21000 ft | 358 kts | 351° |
| 2026-04-15 21:04 | 1.06795 | -60.51702 | 21000 ft | 358 kts | 351° |
| 2026-04-15 21:04 | 1.09279 | -60.51940 | 21000 ft | 358 kts | 351° |
| 2026-04-15 21:04 | 1.11756 | -60.52176 | 21000 ft | 358 kts | 351° |
| 2026-04-15 21:05 | 1.14234 | -60.52413 | 21000 ft | 358 kts | 351° |
| 2026-04-15 21:05 | 1.16713 | -60.52649 | 21000 ft | 358 kts | 351° |
| 2026-04-15 21:05 | 1.19196 | -60.52886 | 21000 ft | 358 kts | 351° |
| 2026-04-15 21:05 | 1.21686 | -60.53124 | 21000 ft | 358 kts | 351° |
| 2026-04-15 21:06 | 1.24178 | -60.53362 | 20729 ft | 361 kts | 351° |
| 2026-04-15 21:06 | 1.26649 | -60.53599 | 20468 ft | 361 kts | 351° |
| 2026-04-15 21:06 | 1.29175 | -60.53840 | 20213 ft | 359 kts | 351° |
| 2026-04-15 21:06 | 1.31637 | -60.54073 | 19962 ft | 353 kts | 351° |
| 2026-04-15 21:07 | 1.34046 | -60.54299 | 19714 ft | 348 kts | 351° |
| 2026-04-15 21:07 | 1.36477 | -60.54528 | 19460 ft | 345 kts | 351° |
| 2026-04-15 21:07 | 1.38828 | -60.54751 | 19213 ft | 343 kts | 350° |
| 2026-04-15 21:07 | 1.41220 | -60.54978 | 18961 ft | 342 kts | 350° |
| 2026-04-15 21:08 | 1.43583 | -60.55204 | 18710 ft | 340 kts | 350° |
| 2026-04-15 21:08 | 1.45940 | -60.55430 | 18459 ft | 339 kts | 350° |
| 2026-04-15 21:08 | 1.48284 | -60.55654 | 18210 ft | 339 kts | 350° |
| 2026-04-15 21:08 | 1.50644 | -60.55880 | 17958 ft | 338 kts | 350° |
| 2026-04-15 21:09 | 1.52932 | -60.56100 | 17713 ft | 337 kts | 350° |
| 2026-04-15 21:09 | 1.55307 | -60.56328 | 17458 ft | 337 kts | 350° |
| 2026-04-15 21:09 | 1.57643 | -60.56551 | 17207 ft | 336 kts | 350° |
| 2026-04-15 21:09 | 1.59972 | -60.56774 | 16956 ft | 335 kts | 350° |
| 2026-04-15 21:10 | 1.62295 | -60.56997 | 16705 ft | 335 kts | 350° |
| 2026-04-15 21:10 | 1.64583 | -60.57216 | 16458 ft | 334 kts | 351° |
| 2026-04-15 21:10 | 1.66888 | -60.57436 | 16208 ft | 333 kts | 351° |
| 2026-04-15 21:10 | 1.69201 | -60.57657 | 15957 ft | 332 kts | 351° |
| 2026-04-15 21:11 | 1.71499 | -60.57876 | 15706 ft | 331 kts | 351° |
| 2026-04-15 21:11 | 1.73785 | -60.58094 | 15456 ft | 330 kts | 351° |
| 2026-04-15 21:11 | 1.76071 | -60.58312 | 15205 ft | 329 kts | 351° |
| 2026-04-15 21:11 | 1.78345 | -60.58529 | 14955 ft | 328 kts | 351° |
| 2026-04-15 21:12 | 1.80625 | -60.58747 | 14703 ft | 327 kts | 351° |
| 2026-04-15 21:12 | 1.82854 | -60.58960 | 14456 ft | 326 kts | 351° |
| 2026-04-15 21:12 | 1.85116 | -60.59176 | 14205 ft | 325 kts | 351° |
| 2026-04-15 21:12 | 1.87366 | -60.59390 | 13954 ft | 324 kts | 351° |
| 2026-04-15 21:13 | 1.89608 | -60.59605 | 13704 ft | 323 kts | 351° |
| 2026-04-15 21:13 | 1.91837 | -60.59817 | 13454 ft | 322 kts | 351° |
| 2026-04-15 21:13 | 1.93318 | -60.59959 | 13287 ft | 321 kts | 351° |
| 2026-04-15 21:13 | 1.96282 | -60.60242 | 12953 ft | 320 kts | 351° |
| 2026-04-15 21:14 | 1.97759 | -60.60383 | 12786 ft | 320 kts | 351° |
| 2026-04-15 21:14 | 1.99962 | -60.60594 | 12537 ft | 319 kts | 351° |
| 2026-04-15 21:14 | 2.02170 | -60.60805 | 12286 ft | 318 kts | 351° |
| 2026-04-15 21:14 | 2.04373 | -60.61015 | 12036 ft | 317 kts | 351° |
| 2026-04-15 21:15 | 2.06571 | -60.61225 | 11785 ft | 317 kts | 351° |
| 2026-04-15 21:15 | 2.08753 | -60.61434 | 11536 ft | 316 kts | 351° |
| 2026-04-15 21:15 | 2.10947 | -60.61643 | 11284 ft | 315 kts | 351° |
| 2026-04-15 21:15 | 2.13101 | -60.61849 | 11037 ft | 315 kts | 351° |
| 2026-04-15 21:16 | 2.15278 | -60.62090 | 10785 ft | 313 kts | 348° |
| 2026-04-15 21:16 | 2.17441 | -60.62482 | 10532 ft | 311 kts | 344° |
| 2026-04-15 21:16 | 2.19508 | -60.62982 | 10286 ft | 309 kts | 341° |
| 2026-04-15 21:16 | 2.21580 | -60.63577 | 10035 ft | 308 kts | 339° |
| 2026-04-15 21:17 | 2.23621 | -60.64230 | 9784 ft | 307 kts | 338° |
| 2026-04-15 21:17 | 2.25637 | -60.64920 | 9534 ft | 306 kts | 337° |
| 2026-04-15 21:17 | 2.27646 | -60.65637 | 9283 ft | 305 kts | 336° |
| 2026-04-15 21:17 | 2.29640 | -60.66366 | 9033 ft | 305 kts | 336° |
| 2026-04-15 21:18 | 2.31625 | -60.67101 | 8783 ft | 304 kts | 336° |
| 2026-04-15 21:18 | 2.33617 | -60.67843 | 8531 ft | 304 kts | 336° |
| 2026-04-15 21:18 | 2.35586 | -60.68578 | 8281 ft | 303 kts | 336° |
| 2026-04-15 21:18 | 2.37570 | -60.69317 | 8031 ft | 303 kts | 336° |
| 2026-04-15 21:19 | 2.39521 | -60.70042 | 7783 ft | 302 kts | 336° |
| 2026-04-15 21:19 | 2.41511 | -60.70780 | 7531 ft | 302 kts | 336° |
| 2026-04-15 21:19 | 2.43487 | -60.71510 | 7280 ft | 302 kts | 336° |
| 2026-04-15 21:19 | 2.45450 | -60.72234 | 7030 ft | 301 kts | 336° |
| 2026-04-15 21:20 | 2.47412 | -60.72957 | 6780 ft | 301 kts | 336° |
| 2026-04-15 21:20 | 2.49386 | -60.73683 | 6528 ft | 298 kts | 336° |
| 2026-04-15 21:20 | 2.51321 | -60.74397 | 6277 ft | 294 kts | 337° |
| 2026-04-15 21:20 | 2.53224 | -60.75101 | 6028 ft | 291 kts | 337° |
| 2026-04-15 21:21 | 2.55116 | -60.75802 | 5777 ft | 289 kts | 338° |
| 2026-04-15 21:21 | 2.57011 | -60.76502 | 5526 ft | 288 kts | 338° |
| 2026-04-15 21:21 | 2.58886 | -60.77194 | 5275 ft | 287 kts | 339° |
| 2026-04-15 21:21 | 2.60735 | -60.77873 | 5028 ft | 286 kts | 339° |
| 2026-04-15 21:22 | 2.62606 | -60.78558 | 4768 ft | 286 kts | 339° |
| 2026-04-15 21:22 | 2.64447 | -60.79232 | 4466 ft | 278 kts | 339° |
| 2026-04-15 21:22 | 2.66238 | -60.79930 | 4201 ft | 271 kts | 338° |
| 2026-04-15 21:22 | 2.67972 | -60.80666 | 4034 ft | 265 kts | 336° |
| 2026-04-15 21:23 | 2.69620 | -60.81417 | 3863 ft | 262 kts | 335° |
| 2026-04-15 21:23 | 2.71251 | -60.82206 | 3690 ft | 260 kts | 334° |
| 2026-04-15 21:23 | 2.72861 | -60.83019 | 3516 ft | 253 kts | 333° |
| 2026-04-15 21:23 | 2.74383 | -60.83801 | 3339 ft | 242 kts | 333° |
| 2026-04-15 21:24 | 2.75962 | -60.84257 | 3147 ft | 233 kts | 352° |
| 2026-04-15 21:24 | 2.77537 | -60.84131 | 2977 ft | 222 kts | 13° |
| 2026-04-15 21:24 | 2.78859 | -60.83467 | 2825 ft | 214 kts | 34° |
| 2026-04-15 21:24 | 2.79836 | -60.82345 | 2663 ft | 215 kts | 57° |
| 2026-04-15 21:25 | 2.80311 | -60.80933 | 2548 ft | 213 kts | 79° |
| 2026-04-15 21:25 | 2.80231 | -60.79480 | 2539 ft | 208 kts | 99° |
| 2026-04-15 21:25 | 2.80102 | -60.78035 | 2498 ft | 208 kts | 90° |
| 2026-04-15 21:25 | 2.80406 | -60.76635 | 2495 ft | 205 kts | 70° |
| 2026-04-15 21:26 | 2.81133 | -60.75439 | 2514 ft | 204 kts | 54° |
| 2026-04-15 21:26 | 2.81831 | -60.74391 | 2468 ft | 137 kts | 60° |
| 2026-04-15 21:26 | 2.82197 | -60.73710 | 2398 ft | 96 kts | 60° |
| 2026-04-15 21:26 | 2.82501 | -60.73137 | 2091 ft | 97 kts | 60° |
| 2026-04-15 21:27 | 2.82813 | -60.72520 | 1806 ft | 100 kts | 63° |
| 2026-04-15 21:27 | 2.83133 | -60.71907 | 1466 ft | 102 kts | 63° |
| 2026-04-15 21:27 | 2.83479 | -60.71224 | 1112 ft | 108 kts | 63° |
| 2026-04-15 21:27 | 2.83813 | -60.70584 | 767 ft | 99 kts | 63° |
| 2026-04-15 21:28 | 2.84114 | -60.69997 | 382 ft | 94 kts | 62° |
| 2026-04-15 21:28 | 2.84334 | -60.69580 | 293 ft | 14 kts | 61° |
| 2026-04-15 21:28 | 2.84385 | -60.69459 | 293 ft | 11 kts | 86° |
| 2026-04-15 21:28 | 2.84324 | -60.69392 | 293 ft | 23 kts | 150° |
| 2026-04-15 21:29 | 2.84193 | -60.69316 | 293 ft | 19 kts | 132° |
| 2026-04-15 21:29 | 2.84182 | -60.69258 | 293 ft | 0 kts | 63° |